sensor_id;sensor_type;location;lat;lon;timestamp;P1;durP1;ratioP1;P2;durP2;ratioP2
80854;SDS011;70272;49.222;-122.892;2023-11-19T00:01:31;2.65;;;2.05;;
80854;SDS011;70272;49.222;-122.892;2023-11-19T00:03:58;2.80;;;1.95;;
80854;SDS011;70272;49.222;-122.892;2023-11-19T00:06:24;8.18;;;2.25;;
80854;SDS011;70272;49.222;-122.892;2023-11-19T00:08:51;4.60;;;2.20;;
80854;SDS011;70272;49.222;-122.892;2023-11-19T00:11:17;3.88;;;2.20;;
80854;SDS011;70272;49.222;-122.892;2023-11-19T00:13:43;5.43;;;2.22;;
80854;SDS011;70272;49.222;-122.892;2023-11-19T00:16:09;4.03;;;2.47;;
80854;SDS011;70272;49.222;-122.892;2023-11-19T00:18:37;3.75;;;2.38;;
80854;SDS011;70272;49.222;-122.892;2023-11-19T00:21:03;7.18;;;2.47;;
80854;SDS011;70272;49.222;-122.892;2023-11-19T00:23:30;5.65;;;2.38;;
80854;SDS011;70272;49.222;-122.892;2023-11-19T00:25:56;3.92;;;2.20;;
80854;SDS011;70272;49.222;-122.892;2023-11-19T00:28:22;5.18;;;2.50;;
80854;SDS011;70272;49.222;-122.892;2023-11-19T00:30:49;3.10;;;2.20;;
80854;SDS011;70272;49.222;-122.892;2023-11-19T00:33:15;3.80;;;2.30;;
80854;SDS011;70272;49.222;-122.892;2023-11-19T00:35:42;3.75;;;2.22;;
80854;SDS011;70272;49.222;-122.892;2023-11-19T00:38:08;4.28;;;2.30;;
80854;SDS011;70272;49.222;-122.892;2023-11-19T00:40:35;4.53;;;2.53;;
80854;SDS011;70272;49.222;-122.892;2023-11-19T00:43:01;4.30;;;2.70;;
80854;SDS011;70272;49.222;-122.892;2023-11-19T00:45:27;4.43;;;2.70;;
80854;SDS011;70272;49.222;-122.892;2023-11-19T00:47:54;3.90;;;2.58;;
80854;SDS011;70272;49.222;-122.892;2023-11-19T00:50:21;5.40;;;2.30;;
80854;SDS011;70272;49.222;-122.892;2023-11-19T00:52:48;3.45;;;2.45;;
80854;SDS011;70272;49.222;-122.892;2023-11-19T00:55:14;3.88;;;2.33;;
80854;SDS011;70272;49.222;-122.892;2023-11-19T00:57:40;3.85;;;2.42;;
80854;SDS011;70272;49.222;-122.892;2023-11-19T01:00:07;3.58;;;2.40;;
80854;SDS011;70272;49.222;-122.892;2023-11-19T01:02:44;4.28;;;2.33;;
80854;SDS011;70272;49.222;-122.892;2023-11-19T01:05:11;4.07;;;2.28;;
80854;SDS011;70272;49.222;-122.892;2023-11-19T01:07:41;6.05;;;3.25;;
80854;SDS011;70272;49.222;-122.892;2023-11-19T01:10:07;7.32;;;4.25;;
80854;SDS011;70272;49.222;-122.892;2023-11-19T01:12:33;5.40;;;4.22;;
80854;SDS011;70272;49.222;-122.892;2023-11-19T01:15:00;5.72;;;3.72;;
80854;SDS011;70272;49.222;-122.892;2023-11-19T01:17:26;5.18;;;3.60;;
80854;SDS011;70272;49.222;-122.892;2023-11-19T01:19:52;6.35;;;5.28;;
80854;SDS011;70272;49.222;-122.892;2023-11-19T01:22:19;9.63;;;6.53;;
80854;SDS011;70272;49.222;-122.892;2023-11-19T01:24:45;7.78;;;6.05;;
80854;SDS011;70272;49.222;-122.892;2023-11-19T01:27:11;5.30;;;4.30;;
80854;SDS011;70272;49.222;-122.892;2023-11-19T01:29:37;5.63;;;4.07;;
80854;SDS011;70272;49.222;-122.892;2023-11-19T01:32:04;4.75;;;3.10;;
80854;SDS011;70272;49.222;-122.892;2023-11-19T01:34:31;4.20;;;3.10;;
80854;SDS011;70272;49.222;-122.892;2023-11-19T01:36:57;3.50;;;2.70;;
80854;SDS011;70272;49.222;-122.892;2023-11-19T01:39:24;4.20;;;2.65;;
80854;SDS011;70272;49.222;-122.892;2023-11-19T01:41:50;4.13;;;2.70;;
80854;SDS011;70272;49.222;-122.892;2023-11-19T01:44:19;4.70;;;3.03;;
80854;SDS011;70272;49.222;-122.892;2023-11-19T01:46:46;8.50;;;5.72;;
80854;SDS011;70272;49.222;-122.892;2023-11-19T01:49:17;6.63;;;4.90;;
80854;SDS011;70272;49.222;-122.892;2023-11-19T01:51:43;13.30;;;7.03;;
80854;SDS011;70272;49.222;-122.892;2023-11-19T01:54:11;5.22;;;3.35;;
80854;SDS011;70272;49.222;-122.892;2023-11-19T01:56:38;5.68;;;2.70;;
80854;SDS011;70272;49.222;-122.892;2023-11-19T01:59:07;4.35;;;2.75;;
80854;SDS011;70272;49.222;-122.892;2023-11-19T02:01:34;5.93;;;3.72;;
80854;SDS011;70272;49.222;-122.892;2023-11-19T02:04:05;4.88;;;3.50;;
80854;SDS011;70272;49.222;-122.892;2023-11-19T02:06:32;4.95;;;3.35;;
80854;SDS011;70272;49.222;-122.892;2023-11-19T02:09:00;8.65;;;3.88;;
80854;SDS011;70272;49.222;-122.892;2023-11-19T02:11:26;7.85;;;5.57;;
80854;SDS011;70272;49.222;-122.892;2023-11-19T02:13:55;8.13;;;5.75;;
80854;SDS011;70272;49.222;-122.892;2023-11-19T02:16:22;8.68;;;6.00;;
80854;SDS011;70272;49.222;-122.892;2023-11-19T02:18:48;7.13;;;5.40;;
80854;SDS011;70272;49.222;-122.892;2023-11-19T02:21:15;10.10;;;7.10;;
80854;SDS011;70272;49.222;-122.892;2023-11-19T02:23:42;10.20;;;6.38;;
80854;SDS011;70272;49.222;-122.892;2023-11-19T02:28:48;6.00;;;4.43;;
80854;SDS011;70272;49.222;-122.892;2023-11-19T02:31:14;7.53;;;4.78;;
80854;SDS011;70272;49.222;-122.892;2023-11-19T02:33:40;6.80;;;5.10;;
80854;SDS011;70272;49.222;-122.892;2023-11-19T02:36:07;7.05;;;4.45;;
80854;SDS011;70272;49.222;-122.892;2023-11-19T02:38:34;6.30;;;3.92;;
80854;SDS011;70272;49.222;-122.892;2023-11-19T02:41:04;6.45;;;4.20;;
80854;SDS011;70272;49.222;-122.892;2023-11-19T02:43:32;5.47;;;4.03;;
80854;SDS011;70272;49.222;-122.892;2023-11-19T02:46:00;7.35;;;4.00;;
80854;SDS011;70272;49.222;-122.892;2023-11-19T02:48:27;4.57;;;3.58;;
80854;SDS011;70272;49.222;-122.892;2023-11-19T02:50:53;8.45;;;3.97;;
80854;SDS011;70272;49.222;-122.892;2023-11-19T02:53:19;8.40;;;4.22;;
80854;SDS011;70272;49.222;-122.892;2023-11-19T02:55:47;5.80;;;3.80;;
80854;SDS011;70272;49.222;-122.892;2023-11-19T02:58:15;5.82;;;3.97;;
80854;SDS011;70272;49.222;-122.892;2023-11-19T03:00:53;9.55;;;5.70;;
80854;SDS011;70272;49.222;-122.892;2023-11-19T03:03:25;65.63;;;29.27;;
80854;SDS011;70272;49.222;-122.892;2023-11-19T03:06:04;74.22;;;34.63;;
80854;SDS011;70272;49.222;-122.892;2023-11-19T03:08:31;10.43;;;6.75;;
80854;SDS011;70272;49.222;-122.892;2023-11-19T03:10:58;19.42;;;10.57;;
80854;SDS011;70272;49.222;-122.892;2023-11-19T03:13:24;20.90;;;10.68;;
80854;SDS011;70272;49.222;-122.892;2023-11-19T03:15:52;11.82;;;6.63;;
80854;SDS011;70272;49.222;-122.892;2023-11-19T03:18:19;6.90;;;4.78;;
80854;SDS011;70272;49.222;-122.892;2023-11-19T03:20:46;7.95;;;4.63;;
80854;SDS011;70272;49.222;-122.892;2023-11-19T03:23:13;10.95;;;6.63;;
80854;SDS011;70272;49.222;-122.892;2023-11-19T03:25:39;11.70;;;6.30;;
80854;SDS011;70272;49.222;-122.892;2023-11-19T03:28:05;9.18;;;4.57;;
80854;SDS011;70272;49.222;-122.892;2023-11-19T03:30:32;7.07;;;4.85;;
80854;SDS011;70272;49.222;-122.892;2023-11-19T03:32:58;7.68;;;4.45;;
80854;SDS011;70272;49.222;-122.892;2023-11-19T03:35:28;8.65;;;4.20;;
80854;SDS011;70272;49.222;-122.892;2023-11-19T03:37:54;5.65;;;3.42;;
80854;SDS011;70272;49.222;-122.892;2023-11-19T03:40:21;6.47;;;3.78;;
80854;SDS011;70272;49.222;-122.892;2023-11-19T03:42:47;6.53;;;3.58;;
80854;SDS011;70272;49.222;-122.892;2023-11-19T03:45:14;5.05;;;3.33;;
80854;SDS011;70272;49.222;-122.892;2023-11-19T03:47:41;7.43;;;3.55;;
80854;SDS011;70272;49.222;-122.892;2023-11-19T03:50:07;10.45;;;4.65;;
80854;SDS011;70272;49.222;-122.892;2023-11-19T03:52:34;7.82;;;4.28;;
80854;SDS011;70272;49.222;-122.892;2023-11-19T03:55:01;5.47;;;3.33;;
80854;SDS011;70272;49.222;-122.892;2023-11-19T03:57:30;4.93;;;3.55;;
80854;SDS011;70272;49.222;-122.892;2023-11-19T03:59:56;7.65;;;4.03;;
80854;SDS011;70272;49.222;-122.892;2023-11-19T04:02:23;4.60;;;3.13;;
80854;SDS011;70272;49.222;-122.892;2023-11-19T04:04:53;7.50;;;3.35;;
80854;SDS011;70272;49.222;-122.892;2023-11-19T04:07:20;5.30;;;3.13;;
80854;SDS011;70272;49.222;-122.892;2023-11-19T04:09:46;3.83;;;2.85;;
80854;SDS011;70272;49.222;-122.892;2023-11-19T04:12:13;4.60;;;3.05;;
80854;SDS011;70272;49.222;-122.892;2023-11-19T04:14:39;6.28;;;2.72;;
80854;SDS011;70272;49.222;-122.892;2023-11-19T04:17:05;4.63;;;2.83;;
80854;SDS011;70272;49.222;-122.892;2023-11-19T04:19:32;5.63;;;3.10;;
80854;SDS011;70272;49.222;-122.892;2023-11-19T04:21:58;5.38;;;3.30;;
80854;SDS011;70272;49.222;-122.892;2023-11-19T04:24:24;4.95;;;3.25;;
80854;SDS011;70272;49.222;-122.892;2023-11-19T04:26:51;5.78;;;3.38;;
80854;SDS011;70272;49.222;-122.892;2023-11-19T04:29:17;5.60;;;3.00;;
80854;SDS011;70272;49.222;-122.892;2023-11-19T04:31:44;4.25;;;2.90;;
80854;SDS011;70272;49.222;-122.892;2023-11-19T04:34:11;6.35;;;3.45;;
80854;SDS011;70272;49.222;-122.892;2023-11-19T04:36:38;4.30;;;2.92;;
80854;SDS011;70272;49.222;-122.892;2023-11-19T04:39:04;4.38;;;2.95;;
80854;SDS011;70272;49.222;-122.892;2023-11-19T04:41:47;6.93;;;4.75;;
80854;SDS011;70272;49.222;-122.892;2023-11-19T04:44:18;5.70;;;3.75;;
80854;SDS011;70272;49.222;-122.892;2023-11-19T04:46:44;3.42;;;2.67;;
80854;SDS011;70272;49.222;-122.892;2023-11-19T04:49:11;4.05;;;2.63;;
80854;SDS011;70272;49.222;-122.892;2023-11-19T04:51:38;4.47;;;2.85;;
80854;SDS011;70272;49.222;-122.892;2023-11-19T04:54:06;4.97;;;2.90;;
80854;SDS011;70272;49.222;-122.892;2023-11-19T04:56:34;5.00;;;2.83;;
80854;SDS011;70272;49.222;-122.892;2023-11-19T04:59:02;3.60;;;2.63;;
80854;SDS011;70272;49.222;-122.892;2023-11-19T05:01:28;4.85;;;3.00;;
80854;SDS011;70272;49.222;-122.892;2023-11-19T05:03:55;5.05;;;3.00;;
80854;SDS011;70272;49.222;-122.892;2023-11-19T05:06:30;3.60;;;2.67;;
80854;SDS011;70272;49.222;-122.892;2023-11-19T05:08:58;3.38;;;2.42;;
80854;SDS011;70272;49.222;-122.892;2023-11-19T05:11:30;6.00;;;2.92;;
80854;SDS011;70272;49.222;-122.892;2023-11-19T05:13:56;5.88;;;3.10;;
80854;SDS011;70272;49.222;-122.892;2023-11-19T05:16:22;4.38;;;2.65;;
80854;SDS011;70272;49.222;-122.892;2023-11-19T05:18:49;3.67;;;2.90;;
80854;SDS011;70272;49.222;-122.892;2023-11-19T05:21:15;5.43;;;3.40;;
80854;SDS011;70272;49.222;-122.892;2023-11-19T05:23:42;5.50;;;3.17;;
80854;SDS011;70272;49.222;-122.892;2023-11-19T05:26:09;6.85;;;4.10;;
80854;SDS011;70272;49.222;-122.892;2023-11-19T05:28:37;6.35;;;4.00;;
80854;SDS011;70272;49.222;-122.892;2023-11-19T05:31:05;6.00;;;3.78;;
80854;SDS011;70272;49.222;-122.892;2023-11-19T05:33:31;5.45;;;3.50;;
80854;SDS011;70272;49.222;-122.892;2023-11-19T05:35:57;8.30;;;4.05;;
80854;SDS011;70272;49.222;-122.892;2023-11-19T05:38:24;8.32;;;4.13;;
80854;SDS011;70272;49.222;-122.892;2023-11-19T05:40:50;5.57;;;3.60;;
80854;SDS011;70272;49.222;-122.892;2023-11-19T05:43:16;6.57;;;3.97;;
80854;SDS011;70272;49.222;-122.892;2023-11-19T05:45:42;3.97;;;3.05;;
80854;SDS011;70272;49.222;-122.892;2023-11-19T05:48:09;5.43;;;2.85;;
80854;SDS011;70272;49.222;-122.892;2023-11-19T05:50:35;5.18;;;2.90;;
80854;SDS011;70272;49.222;-122.892;2023-11-19T05:53:01;5.03;;;3.00;;
80854;SDS011;70272;49.222;-122.892;2023-11-19T05:55:30;4.53;;;3.05;;
80854;SDS011;70272;49.222;-122.892;2023-11-19T05:57:59;4.10;;;2.70;;
80854;SDS011;70272;49.222;-122.892;2023-11-19T06:00:26;5.40;;;3.30;;
80854;SDS011;70272;49.222;-122.892;2023-11-19T06:02:52;4.18;;;2.97;;
80854;SDS011;70272;49.222;-122.892;2023-11-19T06:05:18;6.10;;;4.05;;
80854;SDS011;70272;49.222;-122.892;2023-11-19T06:07:45;5.75;;;3.55;;
80854;SDS011;70272;49.222;-122.892;2023-11-19T06:10:11;7.63;;;3.97;;
80854;SDS011;70272;49.222;-122.892;2023-11-19T06:12:39;9.52;;;4.13;;
80854;SDS011;70272;49.222;-122.892;2023-11-19T06:15:06;5.88;;;3.83;;
80854;SDS011;70272;49.222;-122.892;2023-11-19T06:17:36;6.05;;;3.92;;
80854;SDS011;70272;49.222;-122.892;2023-11-19T06:20:04;5.05;;;3.70;;
80854;SDS011;70272;49.222;-122.892;2023-11-19T06:22:30;5.43;;;3.67;;
80854;SDS011;70272;49.222;-122.892;2023-11-19T06:24:57;6.15;;;3.80;;
80854;SDS011;70272;49.222;-122.892;2023-11-19T06:27:23;5.75;;;3.80;;
80854;SDS011;70272;49.222;-122.892;2023-11-19T06:29:50;6.47;;;3.95;;
80854;SDS011;70272;49.222;-122.892;2023-11-19T06:32:16;7.03;;;3.70;;
80854;SDS011;70272;49.222;-122.892;2023-11-19T06:34:42;5.40;;;3.10;;
80854;SDS011;70272;49.222;-122.892;2023-11-19T06:37:08;6.68;;;3.90;;
80854;SDS011;70272;49.222;-122.892;2023-11-19T06:39:35;7.45;;;3.95;;
80854;SDS011;70272;49.222;-122.892;2023-11-19T06:42:02;7.43;;;4.15;;
80854;SDS011;70272;49.222;-122.892;2023-11-19T06:44:28;5.80;;;4.15;;
80854;SDS011;70272;49.222;-122.892;2023-11-19T06:46:55;5.95;;;4.07;;
80854;SDS011;70272;49.222;-122.892;2023-11-19T06:49:21;10.60;;;4.82;;
80854;SDS011;70272;49.222;-122.892;2023-11-19T06:51:48;7.18;;;3.92;;
80854;SDS011;70272;49.222;-122.892;2023-11-19T06:54:14;8.18;;;4.10;;
80854;SDS011;70272;49.222;-122.892;2023-11-19T06:56:41;6.85;;;4.00;;
80854;SDS011;70272;49.222;-122.892;2023-11-19T06:59:08;6.00;;;3.80;;
80854;SDS011;70272;49.222;-122.892;2023-11-19T07:01:35;6.75;;;3.88;;
80854;SDS011;70272;49.222;-122.892;2023-11-19T07:04:02;5.63;;;3.67;;
80854;SDS011;70272;49.222;-122.892;2023-11-19T07:06:34;8.93;;;4.05;;
80854;SDS011;70272;49.222;-122.892;2023-11-19T07:09:01;6.15;;;3.88;;
80854;SDS011;70272;49.222;-122.892;2023-11-19T07:11:38;9.07;;;3.78;;
80854;SDS011;70272;49.222;-122.892;2023-11-19T07:14:06;7.70;;;3.30;;
80854;SDS011;70272;49.222;-122.892;2023-11-19T07:16:33;5.68;;;3.67;;
80854;SDS011;70272;49.222;-122.892;2023-11-19T07:19:03;6.05;;;3.83;;
80854;SDS011;70272;49.222;-122.892;2023-11-19T07:24:05;6.40;;;3.72;;
80854;SDS011;70272;49.222;-122.892;2023-11-19T07:26:32;7.20;;;3.40;;
80854;SDS011;70272;49.222;-122.892;2023-11-19T07:28:58;5.03;;;3.50;;
80854;SDS011;70272;49.222;-122.892;2023-11-19T07:31:25;6.05;;;3.60;;
80854;SDS011;70272;49.222;-122.892;2023-11-19T07:33:53;6.15;;;3.33;;
80854;SDS011;70272;49.222;-122.892;2023-11-19T07:36:19;6.20;;;3.55;;
80854;SDS011;70272;49.222;-122.892;2023-11-19T07:38:45;4.10;;;3.15;;
80854;SDS011;70272;49.222;-122.892;2023-11-19T07:41:12;5.90;;;3.63;;
80854;SDS011;70272;49.222;-122.892;2023-11-19T07:43:39;5.70;;;3.95;;
80854;SDS011;70272;49.222;-122.892;2023-11-19T07:46:15;6.93;;;3.65;;
80854;SDS011;70272;49.222;-122.892;2023-11-19T07:48:41;7.30;;;3.35;;
80854;SDS011;70272;49.222;-122.892;2023-11-19T07:51:07;4.75;;;3.50;;
80854;SDS011;70272;49.222;-122.892;2023-11-19T07:53:34;5.00;;;3.42;;
80854;SDS011;70272;49.222;-122.892;2023-11-19T07:56:00;6.28;;;3.90;;
80854;SDS011;70272;49.222;-122.892;2023-11-19T07:58:27;4.07;;;3.25;;
80854;SDS011;70272;49.222;-122.892;2023-11-19T08:00:53;5.45;;;3.80;;
80854;SDS011;70272;49.222;-122.892;2023-11-19T08:03:19;5.10;;;3.65;;
80854;SDS011;70272;49.222;-122.892;2023-11-19T08:05:47;4.05;;;2.60;;
80854;SDS011;70272;49.222;-122.892;2023-11-19T08:08:14;5.93;;;3.60;;
80854;SDS011;70272;49.222;-122.892;2023-11-19T08:10:40;5.60;;;4.32;;
80854;SDS011;70272;49.222;-122.892;2023-11-19T08:13:06;5.70;;;3.70;;
80854;SDS011;70272;49.222;-122.892;2023-11-19T08:15:33;5.57;;;3.75;;
80854;SDS011;70272;49.222;-122.892;2023-11-19T08:17:59;5.65;;;3.42;;
80854;SDS011;70272;49.222;-122.892;2023-11-19T08:20:25;5.97;;;3.10;;
80854;SDS011;70272;49.222;-122.892;2023-11-19T08:22:51;6.68;;;3.45;;
80854;SDS011;70272;49.222;-122.892;2023-11-19T08:25:18;6.20;;;4.18;;
80854;SDS011;70272;49.222;-122.892;2023-11-19T08:27:44;6.47;;;3.75;;
80854;SDS011;70272;49.222;-122.892;2023-11-19T08:30:12;5.57;;;3.92;;
80854;SDS011;70272;49.222;-122.892;2023-11-19T08:32:41;4.60;;;2.88;;
80854;SDS011;70272;49.222;-122.892;2023-11-19T08:35:07;6.13;;;3.75;;
80854;SDS011;70272;49.222;-122.892;2023-11-19T08:37:34;6.28;;;3.78;;
80854;SDS011;70272;49.222;-122.892;2023-11-19T08:40:01;5.70;;;3.90;;
80854;SDS011;70272;49.222;-122.892;2023-11-19T08:42:29;6.40;;;4.15;;
80854;SDS011;70272;49.222;-122.892;2023-11-19T08:44:56;6.22;;;4.10;;
80854;SDS011;70272;49.222;-122.892;2023-11-19T08:47:22;5.53;;;3.75;;
80854;SDS011;70272;49.222;-122.892;2023-11-19T08:49:52;6.90;;;4.05;;
80854;SDS011;70272;49.222;-122.892;2023-11-19T08:52:18;6.28;;;3.47;;
80854;SDS011;70272;49.222;-122.892;2023-11-19T08:54:45;5.90;;;4.32;;
80854;SDS011;70272;49.222;-122.892;2023-11-19T08:57:11;6.00;;;4.13;;
80854;SDS011;70272;49.222;-122.892;2023-11-19T08:59:37;5.90;;;4.00;;
80854;SDS011;70272;49.222;-122.892;2023-11-19T09:02:04;5.03;;;3.55;;
80854;SDS011;70272;49.222;-122.892;2023-11-19T09:04:32;4.97;;;3.85;;
80854;SDS011;70272;49.222;-122.892;2023-11-19T09:06:58;6.63;;;4.43;;
80854;SDS011;70272;49.222;-122.892;2023-11-19T09:09:25;8.00;;;4.18;;
80854;SDS011;70272;49.222;-122.892;2023-11-19T09:11:51;5.88;;;3.78;;
80854;SDS011;70272;49.222;-122.892;2023-11-19T09:14:17;3.30;;;2.80;;
80854;SDS011;70272;49.222;-122.892;2023-11-19T09:16:51;4.25;;;2.20;;
80854;SDS011;70272;49.222;-122.892;2023-11-19T09:19:18;6.30;;;4.15;;
80854;SDS011;70272;49.222;-122.892;2023-11-19T09:21:44;5.05;;;4.10;;
80854;SDS011;70272;49.222;-122.892;2023-11-19T09:24:10;5.40;;;4.07;;
80854;SDS011;70272;49.222;-122.892;2023-11-19T09:26:36;6.70;;;3.92;;
80854;SDS011;70272;49.222;-122.892;2023-11-19T09:29:05;5.50;;;3.92;;
80854;SDS011;70272;49.222;-122.892;2023-11-19T09:31:32;5.80;;;3.95;;
80854;SDS011;70272;49.222;-122.892;2023-11-19T09:34:00;5.65;;;3.78;;
80854;SDS011;70272;49.222;-122.892;2023-11-19T09:36:26;7.35;;;3.35;;
80854;SDS011;70272;49.222;-122.892;2023-11-19T09:38:52;8.60;;;3.70;;
80854;SDS011;70272;49.222;-122.892;2023-11-19T09:41:19;5.32;;;3.45;;
80854;SDS011;70272;49.222;-122.892;2023-11-19T09:43:45;4.88;;;3.20;;
80854;SDS011;70272;49.222;-122.892;2023-11-19T09:46:12;3.97;;;2.45;;
80854;SDS011;70272;49.222;-122.892;2023-11-19T09:48:40;5.55;;;2.83;;
80854;SDS011;70272;49.222;-122.892;2023-11-19T09:51:08;4.47;;;3.05;;
80854;SDS011;70272;49.222;-122.892;2023-11-19T09:53:35;5.10;;;2.90;;
80854;SDS011;70272;49.222;-122.892;2023-11-19T09:56:02;4.43;;;2.72;;
80854;SDS011;70272;49.222;-122.892;2023-11-19T09:58:30;3.03;;;2.10;;
80854;SDS011;70272;49.222;-122.892;2023-11-19T10:00:57;4.28;;;2.55;;
80854;SDS011;70272;49.222;-122.892;2023-11-19T10:03:33;4.38;;;2.25;;
80854;SDS011;70272;49.222;-122.892;2023-11-19T10:06:09;4.55;;;3.08;;
80854;SDS011;70272;49.222;-122.892;2023-11-19T10:08:39;4.10;;;2.72;;
80854;SDS011;70272;49.222;-122.892;2023-11-19T10:11:08;7.05;;;2.95;;
80854;SDS011;70272;49.222;-122.892;2023-11-19T10:13:38;4.13;;;2.95;;
80854;SDS011;70272;49.222;-122.892;2023-11-19T10:16:13;4.60;;;2.72;;
80854;SDS011;70272;49.222;-122.892;2023-11-19T10:18:46;5.25;;;2.80;;
80854;SDS011;70272;49.222;-122.892;2023-11-19T10:21:14;4.03;;;2.60;;
80854;SDS011;70272;49.222;-122.892;2023-11-19T10:23:50;4.57;;;2.70;;
80854;SDS011;70272;49.222;-122.892;2023-11-19T10:26:22;6.00;;;2.80;;
80854;SDS011;70272;49.222;-122.892;2023-11-19T10:28:49;5.57;;;2.70;;
80854;SDS011;70272;49.222;-122.892;2023-11-19T10:31:16;4.35;;;2.50;;
80854;SDS011;70272;49.222;-122.892;2023-11-19T10:33:43;4.25;;;2.25;;
80854;SDS011;70272;49.222;-122.892;2023-11-19T10:36:11;4.10;;;2.60;;
80854;SDS011;70272;49.222;-122.892;2023-11-19T10:38:38;4.72;;;2.78;;
80854;SDS011;70272;49.222;-122.892;2023-11-19T10:41:05;3.92;;;2.33;;
80854;SDS011;70272;49.222;-122.892;2023-11-19T10:43:31;4.25;;;2.67;;
80854;SDS011;70272;49.222;-122.892;2023-11-19T10:46:11;6.22;;;2.65;;
80854;SDS011;70272;49.222;-122.892;2023-11-19T10:48:39;4.43;;;2.63;;
80854;SDS011;70272;49.222;-122.892;2023-11-19T10:51:06;2.83;;;2.10;;
80854;SDS011;70272;49.222;-122.892;2023-11-19T10:53:36;5.22;;;2.20;;
80854;SDS011;70272;49.222;-122.892;2023-11-19T10:56:04;2.60;;;1.80;;
80854;SDS011;70272;49.222;-122.892;2023-11-19T10:58:33;4.03;;;2.30;;
80854;SDS011;70272;49.222;-122.892;2023-11-19T11:01:03;2.50;;;2.00;;
80854;SDS011;70272;49.222;-122.892;2023-11-19T11:03:36;4.22;;;1.67;;
80854;SDS011;70272;49.222;-122.892;2023-11-19T11:06:07;2.75;;;1.40;;
80854;SDS011;70272;49.222;-122.892;2023-11-19T11:08:36;2.78;;;1.98;;
80854;SDS011;70272;49.222;-122.892;2023-11-19T11:11:04;1.73;;;1.20;;
80854;SDS011;70272;49.222;-122.892;2023-11-19T11:13:31;1.60;;;1.38;;
80854;SDS011;70272;49.222;-122.892;2023-11-19T11:15:58;2.20;;;1.50;;
80854;SDS011;70272;49.222;-122.892;2023-11-19T11:18:24;3.85;;;1.40;;
80854;SDS011;70272;49.222;-122.892;2023-11-19T11:26:48;4.00;;;1.48;;
80854;SDS011;70272;49.222;-122.892;2023-11-19T11:29:46;2.00;;;1.30;;
80854;SDS011;70272;49.222;-122.892;2023-11-19T11:35:08;1.75;;;1.20;;
80854;SDS011;70272;49.222;-122.892;2023-11-19T11:37:47;1.92;;;1.30;;
80854;SDS011;70272;49.222;-122.892;2023-11-19T11:40:17;2.85;;;1.30;;
80854;SDS011;70272;49.222;-122.892;2023-11-19T11:42:44;4.40;;;1.52;;
80854;SDS011;70272;49.222;-122.892;2023-11-19T11:45:10;1.70;;;1.30;;
80854;SDS011;70272;49.222;-122.892;2023-11-19T11:50:20;1.40;;;1.30;;
80854;SDS011;70272;49.222;-122.892;2023-11-19T11:55:33;3.28;;;1.90;;
80854;SDS011;70272;49.222;-122.892;2023-11-19T11:58:07;3.30;;;1.50;;
80854;SDS011;70272;49.222;-122.892;2023-11-19T12:00:38;3.22;;;1.30;;
80854;SDS011;70272;49.222;-122.892;2023-11-19T12:03:05;1.48;;;1.20;;
80854;SDS011;70272;49.222;-122.892;2023-11-19T12:05:33;2.63;;;1.10;;
80854;SDS011;70272;49.222;-122.892;2023-11-19T12:08:10;2.67;;;1.20;;
80854;SDS011;70272;49.222;-122.892;2023-11-19T12:10:47;3.67;;;1.20;;
80854;SDS011;70272;49.222;-122.892;2023-11-19T12:13:17;3.05;;;1.20;;
80854;SDS011;70272;49.222;-122.892;2023-11-19T12:18:23;1.38;;;0.80;;
80854;SDS011;70272;49.222;-122.892;2023-11-19T12:20:50;2.72;;;1.33;;
80854;SDS011;70272;49.222;-122.892;2023-11-19T12:23:17;2.42;;;0.73;;
80854;SDS011;70272;49.222;-122.892;2023-11-19T12:25:43;1.75;;;0.82;;
80854;SDS011;70272;49.222;-122.892;2023-11-19T12:28:13;1.50;;;1.10;;
80854;SDS011;70272;49.222;-122.892;2023-11-19T12:30:41;0.85;;;0.75;;
80854;SDS011;70272;49.222;-122.892;2023-11-19T12:33:08;0.57;;;0.55;;
80854;SDS011;70272;49.222;-122.892;2023-11-19T12:35:44;1.17;;;0.73;;
80854;SDS011;70272;49.222;-122.892;2023-11-19T12:38:19;1.30;;;0.35;;
80854;SDS011;70272;49.222;-122.892;2023-11-19T12:40:46;3.78;;;0.50;;
80854;SDS011;70272;49.222;-122.892;2023-11-19T12:43:21;0.57;;;0.57;;
80854;SDS011;70272;49.222;-122.892;2023-11-19T12:45:48;2.67;;;0.90;;
80854;SDS011;70272;49.222;-122.892;2023-11-19T12:48:14;0.52;;;0.47;;
80854;SDS011;70272;49.222;-122.892;2023-11-19T12:50:56;2.45;;;0.75;;
80854;SDS011;70272;49.222;-122.892;2023-11-19T12:53:25;1.73;;;0.43;;
80854;SDS011;70272;49.222;-122.892;2023-11-19T12:55:52;4.07;;;0.93;;
80854;SDS011;70272;49.222;-122.892;2023-11-19T12:58:30;0.88;;;0.60;;
80854;SDS011;70272;49.222;-122.892;2023-11-19T13:01:02;0.25;;;0.20;;
80854;SDS011;70272;49.222;-122.892;2023-11-19T13:03:29;1.25;;;1.10;;
80854;SDS011;70272;49.222;-122.892;2023-11-19T13:06:09;1.73;;;0.82;;
80854;SDS011;70272;49.222;-122.892;2023-11-19T13:08:37;1.60;;;0.63;;
80854;SDS011;70272;49.222;-122.892;2023-11-19T13:11:04;0.77;;;0.63;;
80854;SDS011;70272;49.222;-122.892;2023-11-19T13:16:22;1.65;;;0.65;;
80854;SDS011;70272;49.222;-122.892;2023-11-19T13:18:49;2.55;;;0.80;;
80854;SDS011;70272;49.222;-122.892;2023-11-19T13:21:17;1.02;;;0.52;;
80854;SDS011;70272;49.222;-122.892;2023-11-19T13:23:43;1.30;;;0.70;;
80854;SDS011;70272;49.222;-122.892;2023-11-19T13:26:10;0.90;;;0.90;;
80854;SDS011;70272;49.222;-122.892;2023-11-19T13:28:37;2.50;;;0.73;;
80854;SDS011;70272;49.222;-122.892;2023-11-19T13:31:04;0.52;;;0.52;;
80854;SDS011;70272;49.222;-122.892;2023-11-19T13:33:30;1.20;;;0.90;;
80854;SDS011;70272;49.222;-122.892;2023-11-19T13:35:57;3.55;;;0.98;;
80854;SDS011;70272;49.222;-122.892;2023-11-19T13:38:25;1.23;;;0.45;;
80854;SDS011;70272;49.222;-122.892;2023-11-19T13:40:51;1.05;;;0.65;;
80854;SDS011;70272;49.222;-122.892;2023-11-19T13:43:17;1.95;;;0.77;;
80854;SDS011;70272;49.222;-122.892;2023-11-19T13:45:44;1.23;;;0.73;;
80854;SDS011;70272;49.222;-122.892;2023-11-19T13:48:10;0.40;;;0.40;;
80854;SDS011;70272;49.222;-122.892;2023-11-19T13:50:36;1.30;;;0.50;;
80854;SDS011;70272;49.222;-122.892;2023-11-19T13:53:02;0.90;;;0.30;;
80854;SDS011;70272;49.222;-122.892;2023-11-19T13:55:30;0.55;;;0.30;;
80854;SDS011;70272;49.222;-122.892;2023-11-19T13:57:56;2.05;;;0.50;;
80854;SDS011;70272;49.222;-122.892;2023-11-19T14:00:23;1.02;;;0.75;;
80854;SDS011;70272;49.222;-122.892;2023-11-19T14:02:49;0.50;;;0.50;;
80854;SDS011;70272;49.222;-122.892;2023-11-19T14:05:15;0.85;;;0.70;;
80854;SDS011;70272;49.222;-122.892;2023-11-19T14:07:43;2.33;;;0.70;;
80854;SDS011;70272;49.222;-122.892;2023-11-19T14:10:09;0.60;;;0.60;;
80854;SDS011;70272;49.222;-122.892;2023-11-19T14:12:39;1.55;;;0.80;;
80854;SDS011;70272;49.222;-122.892;2023-11-19T14:15:05;0.60;;;0.60;;
80854;SDS011;70272;49.222;-122.892;2023-11-19T14:17:35;0.98;;;0.40;;
80854;SDS011;70272;49.222;-122.892;2023-11-19T14:20:02;0.57;;;0.57;;
80854;SDS011;70272;49.222;-122.892;2023-11-19T14:22:55;1.05;;;0.98;;
80854;SDS011;70272;49.222;-122.892;2023-11-19T14:25:21;1.50;;;1.02;;
80854;SDS011;70272;49.222;-122.892;2023-11-19T14:27:48;1.17;;;0.80;;
80854;SDS011;70272;49.222;-122.892;2023-11-19T14:30:15;0.95;;;0.70;;
80854;SDS011;70272;49.222;-122.892;2023-11-19T14:32:42;0.75;;;0.50;;
80854;SDS011;70272;49.222;-122.892;2023-11-19T14:35:13;0.98;;;0.90;;
80854;SDS011;70272;49.222;-122.892;2023-11-19T14:37:39;1.77;;;0.70;;